EST,Max TemperatureF,Mean TemperatureF,Min TemperatureF,Max Dew PointF,MeanDew PointF,Min DewpointF,Max Humidity, Mean Humidity, Min Humidity, Max Sea Level PressureIn, Mean Sea Level PressureIn, Min Sea Level PressureIn, Max VisibilityMiles, Mean VisibilityMiles, Min VisibilityMiles, Max Wind SpeedMPH, Mean Wind SpeedMPH, Max Gust SpeedMPH,PrecipitationIn, CloudCover, Events, WindDirDegrees
2012-1-1,48,40,33,46,39,33,100,90,71,30.09,29.97,29.71,10,8,1,13,4,21,0.00,2,Rain,199
2012-1-2,48,41,34,48,32,18,100,68,41,29.75,29.66,29.58,10,9,5,16,9,29,0.06,4,Rain,241
2012-1-3,35,28,21,20,15,11,72,58,45,29.96,29.82,29.73,10,10,9,13,6,24,0.00,5,,324
2012-1-4,33,25,17,24,12,2,81,65,38,30.09,30.02,29.92,10,8,2,10,7,21,0.00,6,Snow,284
2012-1-5,37,32,27,22,17,10,67,55,47,29.93,29.86,29.76,10,10,10,10,5,17,0.00,3,,261
2012-1-6,45,36,28,40,30,17,97,79,59,29.98,29.89,29.77,10,8,2,14,4,21,0.01,3,Snow,226
2012-1-7,53,45,35,43,40,34,97,88,66,29.89,29.78,29.70,10,10,7,10,6,18,0.00,0,,229
2012-1-8,45,40,35,33,27,22,73,59,48,30.24,30.11,29.91,10,10,10,10,5,17,0.01,2,,305
2012-1-9,37,34,30,27,21,17,70,60,46,30.31,30.22,30.04,10,10,10,9,6,,0.00,1,,252
2012-1-10,45,40,34,36,28,25,81,65,49,30.01,29.88,29.77,10,10,10,9,5,,0.00,3,,245
2012-1-11,39,34,28,32,27,22,89,70,49,30.14,30.09,29.96,10,10,10,10,5,18,0.00,2,,91
2012-1-12,50,44,39,50,42,33,100,93,70,30.06,29.63,29.36,10,4,0,23,15,37,0.64,8,Fog-Rain-Thunderstorm,115
2012-1-13,51,42,32,50,37,16,100,83,52,29.66,29.46,29.31,10,8,2,23,10,50,0.06,7,Rain,191
2012-1-14,36,31,24,19,13,3,59,48,37,29.99,29.83,29.68,10,10,10,13,9,31,0.00,1,,265
2012-1-15,23,18,14,11,8,4,79,66,46,30.47,30.22,30.01,10,6,0,14,8,25,0.00,8,Snow,321
2012-1-16,39,28,17,36,17,8,87,67,56,30.59,30.45,30.20,10,10,8,15,7,30,0.00,4,Rain,241
2012-1-17,46,41,36,45,39,35,100,92,73,30.17,29.90,29.57,10,7,2,14,9,25,0.19,8,Rain,232
2012-1-18,52,39,25,45,22,5,93,54,38,30.14,29.80,29.49,10,10,6,16,10,32,0.00,1,,287
2012-1-19,37,30,24,25,19,12,72,64,58,30.26,30.16,29.98,10,10,9,12,6,31,0.00,5,,71
2012-1-20,35,30,23,34,25,13,100,79,50,30.29,30.05,29.95,10,7,0,15,8,29,0.09,4,Fog-Rain-Snow,255
2012-1-21,33,27,21,31,26,15,100,87,61,30.29,30.14,30.02,10,4,0,15,4,26,0.05,7,Fog-Snow,28
2012-1-22,33,30,28,26,23,20,85,74,69,30.56,30.48,30.28,10,10,10,13,7,22,0.12,8,,61
2012-1-23,46,40,33,47,40,27,100,91,75,30.52,30.24,29.97,10,6,0,13,7,21,0.62,8,Fog-Rain,126
2012-1-24,50,44,39,48,44,35,100,97,76,30.03,29.95,29.92,10,2,0,13,8,21,0.17,5,Fog-Rain,223
2012-1-25,43,38,33,34,27,25,78,64,49,30.20,30.15,30.04,10,10,10,12,6,22,0.00,1,,296
2012-1-26,41,37,33,39,32,28,100,83,70,30.23,30.14,30.02,10,9,6,8,3,,0.20,7,Rain,93
2012-1-27,52,46,39,52,46,32,100,97,73,29.98,29.56,29.28,10,3,0,16,10,28,0.84,8,Fog-Rain,192
2012-1-28,46,42,37,37,31,25,82,69,46,30.02,29.92,29.64,10,10,10,15,9,33,0.00,1,,248
2012-1-29,42,39,36,36,23,13,82,56,36,30.12,30.06,29.93,10,10,10,15,8,25,0.00,0,,247
2012-1-30,39,36,30,33,22,11,79,57,33,30.31,30.11,29.97,10,10,10,16,6,31,0.00,1,Rain,269
2012-1-31,48,38,28,39,30,16,93,71,56,30.32,30.15,30.05,10,10,8,13,4,22,0.00,4,,212